createdAt,value
2022-10-13T00:00:48.367Z,20.00
2022-10-13T00:04:50.118Z,19.30
2022-10-13T00:08:52.020Z,12.90
2022-10-13T00:12:53.745Z,15.85
2022-10-13T00:16:57.574Z,14.65
2022-10-13T00:20:59.603Z,12.88
2022-10-13T00:25:01.405Z,13.60
2022-10-13T00:29:03.184Z,17.35
2022-10-13T00:33:05.678Z,17.48
2022-10-13T00:37:07.972Z,21.67
2022-10-13T00:41:10.513Z,22.95
2022-10-13T00:45:24.169Z,16.60
2022-10-13T00:49:25.889Z,14.40
2022-10-13T00:53:33.845Z,19.25
2022-10-13T00:57:36.360Z,15.80
2022-10-13T01:01:38.348Z,20.40
2022-10-13T01:05:41.735Z,19.73
2022-10-13T01:09:43.570Z,18.67
2022-10-13T01:14:13.031Z,18.42
2022-10-13T01:18:46.615Z,13.55
2022-10-13T01:23:04.089Z,15.88
2022-10-13T01:27:38.200Z,16.92
2022-10-13T01:32:06.580Z,13.95
2022-10-13T01:36:35.754Z,15.65
2022-10-13T01:40:43.673Z,19.48
2022-10-13T01:45:01.863Z,15.80
2022-10-13T01:49:07.726Z,19.70
2022-10-13T01:53:11.578Z,17.88
2022-10-13T01:57:35.510Z,18.30
2022-10-13T02:01:55.245Z,14.65
2022-10-13T02:06:05.758Z,16.15
2022-10-13T02:10:22.419Z,18.05
2022-10-13T02:14:30.459Z,22.52
2022-10-13T02:18:34.895Z,18.27
2022-10-13T02:22:42.335Z,18.05
2022-10-13T02:26:44.119Z,19.55
2022-10-13T02:30:46.895Z,18.02
2022-10-13T02:34:49.116Z,17.65
2022-10-13T02:38:50.857Z,13.20
2022-10-13T02:42:52.784Z,19.83
2022-10-13T02:46:54.474Z,19.05
2022-10-13T02:50:56.131Z,19.77
2022-10-13T02:54:57.953Z,19.25
2022-10-13T02:58:59.736Z,22.08
2022-10-13T03:03:01.590Z,21.90
2022-10-13T03:07:03.495Z,18.27
2022-10-13T03:11:05.369Z,24.95
2022-10-13T03:15:07.673Z,20.27
2022-10-13T03:19:09.830Z,17.23
2022-10-13T03:23:11.537Z,21.48
2022-10-13T03:27:13.277Z,20.33
2022-10-13T03:31:14.980Z,20.35
2022-10-13T03:35:16.694Z,24.55
2022-10-13T03:39:18.413Z,24.60
2022-10-13T03:43:20.072Z,21.30
2022-10-13T03:47:21.741Z,19.80
2022-10-13T03:51:24.525Z,24.40
2022-10-13T03:55:26.347Z,17.20
2022-10-13T03:59:34.228Z,17.77
2022-10-13T04:03:38.173Z,21.08
2022-10-13T04:07:39.930Z,18.30
2022-10-13T04:11:53.272Z,26.73
2022-10-13T04:15:55.180Z,22.60
2022-10-13T04:19:56.857Z,21.13
2022-10-13T04:23:59.410Z,17.75
2022-10-13T04:28:01.117Z,19.08
2022-10-13T04:32:02.777Z,20.13
2022-10-13T04:36:09.464Z,22.15
2022-10-13T04:40:11.251Z,23.88
2022-10-13T04:44:12.969Z,20.92
2022-10-13T04:48:14.773Z,21.17
2022-10-13T04:52:16.725Z,22.30
2022-10-13T04:56:19.929Z,17.40
2022-10-13T05:00:21.849Z,22.25
2022-10-13T05:04:23.702Z,22.58
2022-10-13T05:08:25.763Z,19.25
2022-10-13T05:12:27.501Z,19.40
2022-10-13T05:16:31.038Z,19.10
2022-10-13T05:20:32.717Z,23.42
2022-10-13T05:24:37.170Z,16.48
2022-10-13T05:28:39.545Z,23.92
2022-10-13T05:32:41.279Z,24.60
2022-10-13T05:36:43.682Z,22.33
2022-10-13T05:40:45.378Z,21.95
2022-10-13T05:44:47.162Z,25.88
2022-10-13T05:48:49.696Z,23.10
2022-10-13T05:52:51.671Z,23.85
2022-10-13T05:57:00.001Z,22.88
2022-10-13T06:01:07.160Z,22.98
2022-10-13T06:05:14.811Z,31.42
2022-10-13T06:09:16.807Z,21.50
2022-10-13T06:13:18.609Z,26.98
2022-10-13T06:17:20.279Z,26.20
2022-10-13T06:21:22.155Z,18.17
2022-10-13T06:25:23.852Z,23.10
2022-10-13T06:29:25.571Z,18.73
2022-10-13T06:33:27.253Z,25.20
2022-10-13T06:37:29.037Z,20.02
2022-10-13T06:41:30.736Z,22.98
2022-10-13T06:45:32.432Z,21.60
2022-10-13T06:49:34.163Z,26.00
2022-10-13T06:53:36.432Z,24.55
2022-10-13T06:57:38.311Z,21.85
2022-10-13T07:01:42.295Z,19.05
2022-10-13T07:05:47.415Z,24.20
2022-10-13T07:09:49.557Z,20.08
2022-10-13T07:13:51.318Z,24.00
2022-10-13T07:17:54.118Z,23.73
2022-10-13T07:21:56.890Z,20.15
2022-10-13T07:25:58.887Z,26.02
2022-10-13T07:30:00.571Z,21.23
2022-10-13T07:34:02.356Z,22.85
2022-10-13T07:38:05.059Z,27.17
2022-10-13T07:42:06.861Z,21.92
2022-10-13T07:46:10.252Z,27.75
2022-10-13T07:50:12.106Z,26.73
2022-10-13T07:54:14.374Z,22.40
2022-10-13T07:58:16.271Z,23.58
2022-10-13T08:02:18.198Z,24.08
2022-10-13T08:06:20.103Z,19.92
2022-10-13T08:10:22.186Z,19.58
2022-10-13T08:14:23.881Z,20.10
2022-10-13T08:18:25.565Z,18.15
2022-10-13T08:22:28.405Z,16.17
2022-10-13T08:26:30.585Z,19.08
2022-10-13T08:30:32.913Z,20.73
2022-10-13T08:34:36.604Z,21.13
2022-10-13T08:38:38.386Z,22.50
2022-10-13T08:42:44.043Z,22.33
2022-10-13T08:47:01.960Z,21.05
2022-10-13T08:51:07.597Z,26.75
2022-10-13T08:55:25.307Z,27.02
2022-10-13T08:59:27.056Z,18.80
2022-10-13T09:03:29.929Z,23.92
2022-10-13T09:07:35.183Z,25.40
2022-10-13T09:11:39.965Z,29.83
2022-10-13T09:15:47.840Z,24.35
2022-10-13T09:19:59.537Z,24.15
2022-10-13T09:24:13.505Z,27.00
2022-10-13T09:28:31.459Z,23.30
2022-10-13T09:32:35.785Z,27.50
2022-10-13T09:36:38.369Z,24.48
2022-10-13T09:40:41.137Z,22.10
2022-10-13T09:44:43.092Z,29.92
2022-10-13T09:48:50.713Z,32.72
2022-10-13T09:52:53.202Z,27.15
2022-10-13T09:57:03.875Z,31.63
2022-10-13T10:01:06.369Z,31.02
2022-10-13T10:05:27.275Z,30.58
2022-10-13T10:09:36.644Z,30.15
2022-10-13T10:13:38.371Z,32.60
2022-10-13T10:17:47.984Z,39.28
2022-10-13T10:21:49.610Z,30.70
2022-10-13T10:25:59.453Z,29.23
2022-10-13T10:30:18.969Z,33.75
2022-10-13T10:34:35.204Z,28.60
2022-10-13T10:39:02.952Z,29.88
2022-10-13T10:43:24.795Z,40.60
2022-10-13T10:47:42.180Z,36.60
2022-10-13T10:51:44.974Z,27.60
2022-10-13T10:55:53.542Z,35.78
2022-10-13T11:00:15.279Z,32.17
2022-10-13T11:04:32.500Z,34.15
2022-10-13T11:08:41.811Z,31.88
2022-10-13T11:12:52.709Z,32.28
2022-10-13T11:17:06.629Z,31.38
2022-10-13T11:21:08.468Z,35.97
2022-10-13T11:25:40.593Z,28.33
2022-10-13T11:29:52.042Z,10.40
2022-10-13T11:34:01.850Z,4.43
2022-10-13T11:38:21.426Z,6.10
2022-10-13T11:43:03.802Z,7.35
2022-10-13T11:47:19.202Z,8.57
2022-10-13T11:51:42.643Z,6.80
2022-10-13T11:55:54.664Z,3.08
2022-10-13T11:59:57.076Z,1.27
2022-10-13T12:04:15.237Z,0.98
2022-10-13T12:08:19.969Z,1.75
2022-10-13T12:12:23.428Z,1.75
2022-10-13T12:16:26.616Z,4.60
2022-10-13T12:20:31.306Z,2.63
2022-10-13T12:24:33.013Z,1.60
2022-10-13T12:29:00.802Z,1.80
2022-10-13T12:33:04.167Z,2.95
2022-10-13T12:37:19.005Z,1.70
2022-10-13T12:41:30.710Z,7.75
2022-10-13T12:45:34.715Z,1.42
2022-10-13T12:49:37.067Z,0.93
2022-10-13T12:53:39.595Z,1.88
2022-10-13T12:57:45.160Z,1.30
2022-10-13T13:02:02.678Z,2.55
2022-10-13T13:06:11.583Z,6.28
2022-10-13T13:10:20.737Z,1.30
2022-10-13T13:14:36.678Z,3.33
2022-10-13T13:18:41.850Z,1.17
2022-10-13T13:22:43.561Z,3.20
2022-10-13T13:26:46.301Z,3.20
2022-10-13T13:30:47.966Z,3.28
2022-10-13T13:34:50.215Z,5.05
2022-10-13T13:38:53.201Z,5.45
2022-10-13T13:42:55.445Z,5.40
2022-10-13T13:47:00.184Z,7.43
2022-10-13T13:51:02.061Z,3.97
2022-10-13T13:55:03.985Z,5.00
2022-10-13T13:59:05.660Z,5.25
2022-10-13T14:03:07.382Z,4.43
2022-10-13T14:07:09.852Z,6.10
2022-10-13T14:11:12.027Z,2.78
2022-10-13T14:15:13.782Z,4.75
2022-10-13T14:19:15.523Z,3.08
2022-10-13T14:23:17.508Z,5.22
2022-10-13T14:27:19.174Z,7.85
2022-10-13T14:31:20.866Z,5.68
2022-10-13T14:35:22.597Z,5.82
2022-10-13T14:39:24.328Z,4.82
2022-10-13T14:43:26.400Z,5.18
2022-10-13T14:47:28.152Z,4.88
2022-10-13T14:51:29.886Z,4.78
2022-10-13T14:55:32.291Z,5.38
2022-10-13T14:59:34.036Z,4.65
2022-10-13T15:03:35.738Z,6.82
2022-10-13T15:07:40.981Z,4.38
2022-10-13T15:11:43.123Z,4.28
2022-10-13T15:15:48.148Z,3.78
2022-10-13T15:19:50.069Z,4.35
2022-10-13T15:23:52.002Z,3.50
2022-10-13T15:27:53.833Z,6.30
2022-10-13T15:32:08.173Z,6.13
2022-10-13T15:36:09.998Z,6.05
2022-10-13T15:40:14.382Z,5.13
2022-10-13T15:44:19.710Z,4.40
2022-10-13T15:48:21.771Z,5.15
2022-10-13T15:52:23.940Z,6.03
2022-10-13T15:56:26.089Z,5.22
2022-10-13T16:00:27.870Z,7.03
2022-10-13T16:04:33.475Z,7.45
2022-10-13T16:08:39.870Z,10.25
2022-10-13T16:12:46.981Z,10.18
2022-10-13T16:16:51.242Z,12.65
2022-10-13T16:20:52.957Z,12.52
2022-10-13T16:24:54.636Z,11.80
2022-10-13T16:28:56.912Z,15.18
2022-10-13T16:32:58.689Z,14.18
2022-10-13T16:37:00.380Z,14.98
2022-10-13T16:41:06.751Z,12.43
2022-10-13T16:45:09.013Z,13.00
2022-10-13T16:49:11.558Z,12.05
2022-10-13T16:53:13.401Z,8.82
2022-10-13T16:57:15.177Z,11.13
2022-10-13T17:01:17.054Z,9.82
2022-10-13T17:05:18.796Z,8.07
2022-10-13T17:09:20.483Z,7.32
2022-10-13T17:13:22.287Z,7.15
2022-10-13T17:17:24.665Z,9.70
2022-10-13T17:21:26.337Z,8.10
2022-10-13T17:25:28.407Z,8.90
2022-10-13T17:29:30.247Z,9.18
2022-10-13T17:33:34.456Z,10.30
2022-10-13T17:37:36.305Z,8.75
2022-10-13T17:41:38.037Z,9.68
2022-10-13T17:45:39.883Z,16.67
2022-10-13T17:49:41.578Z,8.80
2022-10-13T17:53:45.994Z,10.27
2022-10-13T17:57:47.807Z,10.07
2022-10-13T18:01:49.785Z,13.25
2022-10-13T18:05:53.491Z,12.85
2022-10-13T18:09:55.207Z,11.15
2022-10-13T18:13:58.752Z,13.15
2022-10-13T18:18:00.478Z,13.15
2022-10-13T18:22:04.405Z,11.90
2022-10-13T18:26:17.348Z,12.00
2022-10-13T18:30:22.313Z,11.27
2022-10-13T18:34:24.861Z,12.57
2022-10-13T18:38:26.957Z,11.13
2022-10-13T18:42:28.907Z,11.13
2022-10-13T18:46:32.253Z,12.10
2022-10-13T18:50:37.885Z,15.32
2022-10-13T18:54:39.610Z,9.95
2022-10-13T18:58:41.788Z,10.52
2022-10-13T19:02:43.535Z,12.20
2022-10-13T19:06:46.583Z,8.07
2022-10-13T19:10:48.336Z,12.45
2022-10-13T19:14:50.069Z,11.95
2022-10-13T19:18:52.405Z,12.40
2022-10-13T19:22:54.115Z,13.88
2022-10-13T19:26:56.299Z,14.80
2022-10-13T19:30:58.067Z,17.75
2022-10-13T19:34:59.888Z,20.48
2022-10-13T19:39:03.971Z,18.77
2022-10-13T19:43:05.763Z,16.50
2022-10-13T19:47:07.498Z,19.02
2022-10-13T19:51:09.833Z,17.65
2022-10-13T19:55:11.749Z,15.38
2022-10-13T19:59:14.457Z,17.02
2022-10-13T20:03:16.541Z,16.23
2022-10-13T20:07:20.865Z,14.70
2022-10-13T20:11:24.321Z,16.50
2022-10-13T20:15:26.294Z,18.13
2022-10-13T20:19:34.065Z,16.75
2022-10-13T20:23:35.901Z,17.02
2022-10-13T20:27:37.560Z,15.85
2022-10-13T20:31:39.768Z,14.15
2022-10-13T20:35:41.449Z,17.30
2022-10-13T20:39:43.162Z,16.58
2022-10-13T20:43:46.239Z,15.35
2022-10-13T20:47:50.723Z,16.38
2022-10-13T20:51:52.510Z,14.18
2022-10-13T20:55:58.544Z,15.60
2022-10-13T21:00:00.192Z,16.00
2022-10-13T21:04:01.957Z,16.45
2022-10-13T21:08:03.730Z,14.95
2022-10-13T21:12:06.315Z,19.67
2022-10-13T21:16:11.497Z,18.02
2022-10-13T21:20:13.228Z,18.38
2022-10-13T21:24:14.895Z,14.57
2022-10-13T21:28:16.719Z,14.13
2022-10-13T21:32:19.553Z,14.40
2022-10-13T21:36:25.193Z,12.90
2022-10-13T21:40:27.135Z,12.82
2022-10-13T21:44:30.968Z,12.73
2022-10-13T21:48:32.681Z,12.93
2022-10-13T21:52:35.810Z,12.00
2022-10-13T21:56:38.414Z,11.00
2022-10-13T22:00:40.650Z,11.27
2022-10-13T22:04:42.562Z,10.77
2022-10-13T22:08:45.897Z,15.02
2022-10-13T22:12:48.906Z,13.23
2022-10-13T22:16:52.682Z,14.88
2022-10-13T22:20:54.347Z,11.50
2022-10-13T22:24:56.048Z,13.40
2022-10-13T22:29:02.903Z,13.88
2022-10-13T22:33:04.617Z,11.30
2022-10-13T22:37:06.317Z,16.60
2022-10-13T22:41:08.710Z,11.13
2022-10-13T22:45:10.583Z,14.50
2022-10-13T22:49:13.480Z,14.10
2022-10-13T22:53:15.302Z,12.02
2022-10-13T22:57:17.014Z,13.85
2022-10-13T23:01:19.068Z,13.35
2022-10-13T23:05:20.854Z,13.60
2022-10-13T23:09:22.556Z,14.70
2022-10-13T23:13:24.603Z,14.55
2022-10-13T23:17:27.645Z,11.40
2022-10-13T23:21:30.725Z,13.77
2022-10-13T23:25:34.630Z,18.13
2022-10-13T23:29:36.384Z,14.18
2022-10-13T23:33:38.172Z,13.98
2022-10-13T23:37:40.026Z,16.15
2022-10-13T23:41:41.730Z,15.68
2022-10-13T23:45:44.281Z,16.15
2022-10-13T23:49:48.507Z,16.13
2022-10-13T23:53:51.127Z,14.10
2022-10-13T23:57:52.849Z,20.20
